sensor_id;sensor_type;location;lat;lon;timestamp;temperature;humidity
20315;DHT22;10315;50.958;13.080;2023-05-29T00:03:49;10.60;99.90
20315;DHT22;10315;50.958;13.080;2023-05-29T00:13:54;10.70;99.90
20315;DHT22;10315;50.958;13.080;2023-05-29T00:23:57;10.70;99.90
20315;DHT22;10315;50.958;13.080;2023-05-29T00:34:00;10.70;99.90
20315;DHT22;10315;50.958;13.080;2023-05-29T00:44:01;10.70;99.90
20315;DHT22;10315;50.958;13.080;2023-05-29T00:54:04;10.00;99.90
20315;DHT22;10315;50.958;13.080;2023-05-29T01:04:09;9.90;99.90
20315;DHT22;10315;50.958;13.080;2023-05-29T01:14:19;9.70;99.90
20315;DHT22;10315;50.958;13.080;2023-05-29T01:24:29;9.60;99.90
20315;DHT22;10315;50.958;13.080;2023-05-29T01:34:34;9.70;99.90
20315;DHT22;10315;50.958;13.080;2023-05-29T01:44:37;9.60;99.90
20315;DHT22;10315;50.958;13.080;2023-05-29T01:54:40;9.40;99.90
20315;DHT22;10315;50.958;13.080;2023-05-29T02:04:42;9.30;99.90
20315;DHT22;10315;50.958;13.080;2023-05-29T02:14:45;9.30;99.90
20315;DHT22;10315;50.958;13.080;2023-05-29T02:24:46;9.20;99.90
20315;DHT22;10315;50.958;13.080;2023-05-29T02:34:50;8.80;99.90
20315;DHT22;10315;50.958;13.080;2023-05-29T02:44:52;8.40;99.90
20315;DHT22;10315;50.958;13.080;2023-05-29T02:54:56;8.30;99.90
20315;DHT22;10315;50.958;13.080;2023-05-29T03:04:59;8.20;99.90
20315;DHT22;10315;50.958;13.080;2023-05-29T03:15:06;8.20;99.90
20315;DHT22;10315;50.958;13.080;2023-05-29T03:25:09;8.30;99.90
20315;DHT22;10315;50.958;13.080;2023-05-29T03:35:12;8.20;99.90
20315;DHT22;10315;50.958;13.080;2023-05-29T03:45:14;8.30;99.90
20315;DHT22;10315;50.958;13.080;2023-05-29T03:55:18;8.80;99.90
20315;DHT22;10315;50.958;13.080;2023-05-29T04:05:19;8.50;99.90
20315;DHT22;10315;50.958;13.080;2023-05-29T04:15:22;8.30;99.90
20315;DHT22;10315;50.958;13.080;2023-05-29T04:25:24;8.50;99.90
20315;DHT22;10315;50.958;13.080;2023-05-29T04:35:27;8.80;99.90
20315;DHT22;10315;50.958;13.080;2023-05-29T04:45:29;9.20;99.90
20315;DHT22;10315;50.958;13.080;2023-05-29T04:55:35;9.30;99.90
20315;DHT22;10315;50.958;13.080;2023-05-29T05:05:36;9.60;99.90
20315;DHT22;10315;50.958;13.080;2023-05-29T05:15:43;9.80;99.90
20315;DHT22;10315;50.958;13.080;2023-05-29T05:25:44;10.20;99.90
20315;DHT22;10315;50.958;13.080;2023-05-29T05:35:47;10.90;99.90
20315;DHT22;10315;50.958;13.080;2023-05-29T05:45:49;11.60;99.90
20315;DHT22;10315;50.958;13.080;2023-05-29T05:55:51;12.10;99.90
20315;DHT22;10315;50.958;13.080;2023-05-29T06:05:54;12.80;99.90
20315;DHT22;10315;50.958;13.080;2023-05-29T06:15:57;14.00;99.90
20315;DHT22;10315;50.958;13.080;2023-05-29T06:25:58;15.00;99.90
20315;DHT22;10315;50.958;13.080;2023-05-29T06:36:02;17.40;99.90
20315;DHT22;10315;50.958;13.080;2023-05-29T06:46:04;27.40;99.50
20315;DHT22;10315;50.958;13.080;2023-05-29T06:56:07;33.00;72.00
20315;DHT22;10315;50.958;13.080;2023-05-29T07:06:09;33.80;61.00
20315;DHT22;10315;50.958;13.080;2023-05-29T07:16:11;38.40;51.70
20315;DHT22;10315;50.958;13.080;2023-05-29T07:26:13;38.60;49.20
20315;DHT22;10315;50.958;13.080;2023-05-29T07:36:16;44.30;43.90
20315;DHT22;10315;50.958;13.080;2023-05-29T07:46:18;40.90;42.30
20315;DHT22;10315;50.958;13.080;2023-05-29T07:56:21;38.60;43.50
20315;DHT22;10315;50.958;13.080;2023-05-29T08:06:23;43.90;37.70
20315;DHT22;10315;50.958;13.080;2023-05-29T08:16:25;47.70;33.70
20315;DHT22;10315;50.958;13.080;2023-05-29T08:26:27;48.70;33.30
20315;DHT22;10315;50.958;13.080;2023-05-29T08:36:30;47.10;31.50
20315;DHT22;10315;50.958;13.080;2023-05-29T08:46:33;47.30;31.60
20315;DHT22;10315;50.958;13.080;2023-05-29T08:56:36;46.60;32.00
20315;DHT22;10315;50.958;13.080;2023-05-29T09:06:38;46.50;32.50
20315;DHT22;10315;50.958;13.080;2023-05-29T09:16:42;46.20;31.60
20315;DHT22;10315;50.958;13.080;2023-05-29T09:26:49;45.90;31.20
20315;DHT22;10315;50.958;13.080;2023-05-29T09:36:52;45.40;31.10
20315;DHT22;10315;50.958;13.080;2023-05-29T09:46:57;45.40;31.10
20315;DHT22;10315;50.958;13.080;2023-05-29T09:57:01;43.40;32.00
20315;DHT22;10315;50.958;13.080;2023-05-29T10:07:08;42.50;32.20
20315;DHT22;10315;50.958;13.080;2023-05-29T10:17:12;40.80;33.90
20315;DHT22;10315;50.958;13.080;2023-05-29T10:27:15;35.20;38.90
20315;DHT22;10315;50.958;13.080;2023-05-29T10:37:29;31.20;44.00
20315;DHT22;10315;50.958;13.080;2023-05-29T10:47:33;30.70;44.00
20315;DHT22;10315;50.958;13.080;2023-05-29T10:57:36;28.00;48.30
20315;DHT22;10315;50.958;13.080;2023-05-29T11:08:06;28.00;48.40
20315;DHT22;10315;50.958;13.080;2023-05-29T11:18:11;27.80;48.50
20315;DHT22;10315;50.958;13.080;2023-05-29T11:28:15;27.70;47.10
20315;DHT22;10315;50.958;13.080;2023-05-29T11:38:18;26.90;47.90
20315;DHT22;10315;50.958;13.080;2023-05-29T11:48:20;27.30;49.00
20315;DHT22;10315;50.958;13.080;2023-05-29T11:58:23;26.70;52.00
20315;DHT22;10315;50.958;13.080;2023-05-29T12:08:25;27.80;47.60
20315;DHT22;10315;50.958;13.080;2023-05-29T12:18:29;26.80;50.50
20315;DHT22;10315;50.958;13.080;2023-05-29T12:28:31;26.10;51.90
20315;DHT22;10315;50.958;13.080;2023-05-29T12:38:46;26.10;50.30
20315;DHT22;10315;50.958;13.080;2023-05-29T12:48:48;26.40;51.50
20315;DHT22;10315;50.958;13.080;2023-05-29T12:58:52;25.60;50.00
20315;DHT22;10315;50.958;13.080;2023-05-29T13:08:54;25.10;51.60
20315;DHT22;10315;50.958;13.080;2023-05-29T13:18:56;26.90;51.30
20315;DHT22;10315;50.958;13.080;2023-05-29T13:28:58;27.10;50.50
20315;DHT22;10315;50.958;13.080;2023-05-29T13:39:01;26.90;51.30
20315;DHT22;10315;50.958;13.080;2023-05-29T13:49:04;26.20;50.80
20315;DHT22;10315;50.958;13.080;2023-05-29T13:59:09;26.30;50.90
20315;DHT22;10315;50.958;13.080;2023-05-29T14:09:10;26.50;50.70
20315;DHT22;10315;50.958;13.080;2023-05-29T14:19:14;26.30;51.70
20315;DHT22;10315;50.958;13.080;2023-05-29T14:29:16;26.00;53.10
20315;DHT22;10315;50.958;13.080;2023-05-29T14:39:19;27.10;53.70
20315;DHT22;10315;50.958;13.080;2023-05-29T14:49:20;25.80;54.00
20315;DHT22;10315;50.958;13.080;2023-05-29T14:59:25;25.10;54.80
20315;DHT22;10315;50.958;13.080;2023-05-29T15:09:26;24.30;56.70
20315;DHT22;10315;50.958;13.080;2023-05-29T15:19:29;24.70;56.90
20315;DHT22;10315;50.958;13.080;2023-05-29T15:29:33;23.60;58.40
20315;DHT22;10315;50.958;13.080;2023-05-29T15:39:36;22.90;59.30
20315;DHT22;10315;50.958;13.080;2023-05-29T15:49:39;22.70;61.20
20315;DHT22;10315;50.958;13.080;2023-05-29T15:59:42;22.70;59.80
20315;DHT22;10315;50.958;13.080;2023-05-29T16:09:45;22.70;63.80
20315;DHT22;10315;50.958;13.080;2023-05-29T16:19:48;22.40;60.30
20315;DHT22;10315;50.958;13.080;2023-05-29T16:29:55;22.30;63.50
20315;DHT22;10315;50.958;13.080;2023-05-29T16:39:58;22.00;64.90
20315;DHT22;10315;50.958;13.080;2023-05-29T16:50:00;21.90;63.50
20315;DHT22;10315;50.958;13.080;2023-05-29T17:00:04;21.70;64.70
20315;DHT22;10315;50.958;13.080;2023-05-29T17:10:07;21.40;67.40
20315;DHT22;10315;50.958;13.080;2023-05-29T17:20:11;20.80;66.70
20315;DHT22;10315;50.958;13.080;2023-05-29T17:30:15;20.40;68.90
20315;DHT22;10315;50.958;13.080;2023-05-29T17:40:18;20.10;71.10
20315;DHT22;10315;50.958;13.080;2023-05-29T17:50:21;19.70;72.80
20315;DHT22;10315;50.958;13.080;2023-05-29T18:00:24;19.50;74.20
20315;DHT22;10315;50.958;13.080;2023-05-29T18:10:25;19.20;75.80
20315;DHT22;10315;50.958;13.080;2023-05-29T18:20:30;18.60;76.90
20315;DHT22;10315;50.958;13.080;2023-05-29T18:30:31;18.00;80.80
20315;DHT22;10315;50.958;13.080;2023-05-29T18:40:35;17.50;86.00
20315;DHT22;10315;50.958;13.080;2023-05-29T18:50:37;17.10;90.00
20315;DHT22;10315;50.958;13.080;2023-05-29T19:00:40;16.70;92.30
20315;DHT22;10315;50.958;13.080;2023-05-29T19:10:41;16.40;95.50
20315;DHT22;10315;50.958;13.080;2023-05-29T19:20:44;16.00;99.90
20315;DHT22;10315;50.958;13.080;2023-05-29T19:30:46;15.70;99.90
20315;DHT22;10315;50.958;13.080;2023-05-29T19:40:49;15.50;99.90
20315;DHT22;10315;50.958;13.080;2023-05-29T19:50:50;15.20;99.90
20315;DHT22;10315;50.958;13.080;2023-05-29T20:00:53;14.90;99.90
20315;DHT22;10315;50.958;13.080;2023-05-29T20:10:55;14.70;99.90
20315;DHT22;10315;50.958;13.080;2023-05-29T20:20:58;14.60;99.90
20315;DHT22;10315;50.958;13.080;2023-05-29T20:31:00;14.50;99.90
20315;DHT22;10315;50.958;13.080;2023-05-29T20:41:03;14.30;99.90
20315;DHT22;10315;50.958;13.080;2023-05-29T20:51:05;14.20;99.90
20315;DHT22;10315;50.958;13.080;2023-05-29T21:01:08;14.10;99.90
20315;DHT22;10315;50.958;13.080;2023-05-29T21:11:10;14.10;99.90
20315;DHT22;10315;50.958;13.080;2023-05-29T21:21:13;13.90;99.90
20315;DHT22;10315;50.958;13.080;2023-05-29T21:31:15;13.70;99.90
20315;DHT22;10315;50.958;13.080;2023-05-29T21:41:19;13.60;99.90
20315;DHT22;10315;50.958;13.080;2023-05-29T21:51:21;13.50;99.90
20315;DHT22;10315;50.958;13.080;2023-05-29T22:01:24;13.30;99.90
20315;DHT22;10315;50.958;13.080;2023-05-29T22:11:27;13.20;99.90
20315;DHT22;10315;50.958;13.080;2023-05-29T22:21:32;13.10;99.90
20315;DHT22;10315;50.958;13.080;2023-05-29T22:31:34;12.80;99.90
20315;DHT22;10315;50.958;13.080;2023-05-29T22:41:37;12.60;99.90
20315;DHT22;10315;50.958;13.080;2023-05-29T22:51:38;12.40;99.90
20315;DHT22;10315;50.958;13.080;2023-05-29T23:01:42;12.10;99.90
20315;DHT22;10315;50.958;13.080;2023-05-29T23:11:49;11.80;99.90
20315;DHT22;10315;50.958;13.080;2023-05-29T23:21:53;11.50;99.90
20315;DHT22;10315;50.958;13.080;2023-05-29T23:31:55;11.40;99.90
20315;DHT22;10315;50.958;13.080;2023-05-29T23:41:57;11.40;99.90
20315;DHT22;10315;50.958;13.080;2023-05-29T23:52:01;11.40;99.90
